Riyadh, Saudi Arabia
Current Conditions -  °F | °C
As of 4:00 PM on Thursday 27 Nov 2014 (Local Time) from OERY Reporting Station
Few Clouds Few Clouds  
Wind Chill: 72°   Ceiling: Unl
Heat Index: 72°   Visibility: 4mi
Dew Point: 59°   Wind: 13mph
Humidity: 64%   Direction: 140°SE
Pressure: 30.03"   Gusts: NA
Location:  24.65°N, 46.77°E
Report Text: OERY 271300Z 14011KT 6000 FEW100 22/15 Q1017
Loading
Personal Weather Stations






























Interactive Weather Map New forecast layout! Learn more

10-Day Weather Forecast

Advertisements
Track Severe Weather on mobile